CheckWX is a tool to help pilots better visualize weather data.  It is not intended as a substitute for an official pre-flight weather briefing.

11:59:23 UTC

SBGL TAF
RIOgaleão – Tom Jobim International Airport
Rio De Janeiro, Brazil
TAF SBGL 220900Z 2212/2318 24005KT 4000 BR BKN006 BKN015 TX22/2217Z TN17/2309Z BECMG 2214/2216 17010KT 7000 NSW SCT017 TEMPO 2218/2222 3000 DZ BR BKN010 BECMG 2222/2224 12005KT BECMG 2300/2302 10005KT BKN011 BECMG 2302/2304 07005KT BECMG 2309/2311 09010KT BKN017 BECMG 2316/2318 12006KT 1500 RA BR BKN010 BKN030 RMK PFV

Aug-22@
12:00 UTC

Aug-22 @ 12:00 UTC

Aug-22@
14:00 UTC

Aug-22 @ 14:00 UTC

TAF SBGL 220900Z 2212/2318 24005KT 4000 BR BKN006 BKN015 TX22/2217Z TN17/2309Z
Wind
  • 240° at 5 KTS
Conditions
Mist
Cloud Levels
  • Broken at 600' AGL
  • Broken at 1,500' AGL

Aug-22@
14:00 UTC

Aug-22 @ 14:00 UTC

Aug-22@
22:00 UTC

Aug-22 @ 22:00 UTC

BECMG 2214/2216 17010KT 7000 NSW SCT017

Becoming

Becoming Conditions expected by Thu, Aug 22, 2019 @ 16:00 UTC

Wind
  • 170° at 10 KTS
Conditions
No significant weather
Cloud Levels
  • Scattered at 1,700' AGL

Aug-22@
18:00 UTC

Aug-22 @ 18:00 UTC

Aug-22@
22:00 UTC

Aug-22 @ 22:00 UTC

TEMPO 2218/2222 3000 DZ BR BKN010

Temporary

Temporary Changes expected for less than half the time period

Conditions
Drizzle, Mist
Cloud Levels
  • Broken at 1,000' AGL

Aug-22@
22:00 UTC

Aug-22 @ 22:00 UTC

Aug-23@
00:00 UTC

Aug-23 @ 00:00 UTC

BECMG 2222/2224 12005KT

Becoming

Becoming Conditions expected by Fri, Aug 23, 2019 @ 00:00 UTC

Wind
  • 120° at 5 KTS
Conditions
No significant weather
Cloud Levels
  • Scattered at 1,700' AGL

Aug-23@
00:00 UTC

Aug-23 @ 00:00 UTC

Aug-23@
02:00 UTC

Aug-23 @ 02:00 UTC

BECMG 2300/2302 10005KT BKN011

Becoming

Becoming Conditions expected by Fri, Aug 23, 2019 @ 02:00 UTC

Wind
  • 100° at 5 KTS
Conditions
No significant weather
Cloud Levels
  • Broken at 1,100' AGL

Aug-23@
02:00 UTC

Aug-23 @ 02:00 UTC

Aug-23@
09:00 UTC

Aug-23 @ 09:00 UTC

BECMG 2302/2304 07005KT

Becoming

Becoming Conditions expected by Fri, Aug 23, 2019 @ 04:00 UTC

Wind
  • 070° at 5 KTS
Conditions
No significant weather
Cloud Levels
  • Broken at 1,100' AGL

Aug-23@
09:00 UTC

Aug-23 @ 09:00 UTC

Aug-23@
16:00 UTC

Aug-23 @ 16:00 UTC

BECMG 2309/2311 09010KT BKN017

Becoming

Becoming Conditions expected by Fri, Aug 23, 2019 @ 11:00 UTC

Wind
  • 090° at 10 KTS
Conditions
No significant weather
Cloud Levels
  • Broken at 1,700' AGL

Aug-23@
16:00 UTC

Aug-23 @ 16:00 UTC

Aug-23@
18:00 UTC

Aug-23 @ 18:00 UTC

BECMG 2316/2318 12006KT 1500 RA BR BKN010 BKN030 RMK PFV

Becoming

Becoming Conditions expected by Fri, Aug 23, 2019 @ 18:00 UTC

Wind
  • 120° at 6 KTS
Conditions
Rain, Mist
Cloud Levels
  • Broken at 1,000' AGL
  • Broken at 3,000' AGL